Time;durP1;ratioP1;P1;durP2;ratioP2;P2;SDS_P1;SDS_P2;PMS_P1;PMS_P2;Temp;Humidity;BMP_temperature;BMP_pressure;BME280_temperature;BME280_humidity;BME280_pressure;Samples;Min_cycle;Max_cycle;Signal;HPM_P1;HPM_P2
2021/04/16 00:01:16;;;;;;;12.60;9.63;;;;;;;;;;5002719;28;20210;-78
2021/04/16 00:03:42;;;;;;;12.38;8.30;;;;;;;;;;5000884;28;20241;-78
2021/04/16 00:06:08;;;;;;;14.25;10.02;;;;;;;;;;4999512;28;20192;-78
2021/04/16 00:08:34;;;;;;;11.07;8.75;;;;;;;;;;5003899;28;20183;-78
2021/04/16 00:11:12;;;;;;;13.18;7.80;;;;;;;;;;5006823;28;20637;-78
2021/04/16 00:13:39;;;;;;;9.98;8.35;;;;;;;;;;5007394;28;20628;-78
2021/04/16 00:16:08;;;;;;;9.80;8.32;;;;;;;;;;5006033;28;20266;-78
2021/04/16 00:18:35;;;;;;;9.27;8.20;;;;;;;;;;5006054;28;20187;-78
2021/04/16 00:21:01;;;;;;;10.80;9.63;;;;;;;;;;4995000;28;20255;-78
2021/04/16 00:23:28;;;;;;;10.23;8.32;;;;;;;;;;4995017;28;20199;-78
2021/04/16 00:25:54;;;;;;;11.75;9.20;;;;;;;;;;4997997;28;20225;-78
2021/04/16 00:28:20;;;;;;;14.65;8.65;;;;;;;;;;5005610;28;20184;-78
2021/04/16 00:30:50;;;;;;;9.93;8.75;;;;;;;;;;5005359;28;20214;-78
2021/04/16 00:33:16;;;;;;;11.98;10.02;;;;;;;;;;5006205;28;20179;-78
2021/04/16 00:35:43;;;;;;;10.80;9.57;;;;;;;;;;5005671;28;20259;-78
2021/04/16 00:38:09;;;;;;;11.93;9.10;;;;;;;;;;5005688;28;20258;-78
2021/04/16 00:40:41;;;;;;;12.13;9.43;;;;;;;;;;5004770;28;20179;-78
2021/04/16 00:43:07;;;;;;;11.63;9.70;;;;;;;;;;5001810;28;20839;-77
2021/04/16 00:45:34;;;;;;;11.70;9.15;;;;;;;;;;4994729;28;20190;-78
2021/04/16 00:48:02;;;;;;;11.40;8.68;;;;;;;;;;4995330;28;20179;-78
2021/04/16 00:50:38;;;;;;;14.88;10.13;;;;;;;;;;4999096;28;20629;-78
2021/04/16 00:53:04;;;;;;;10.75;9.10;;;;;;;;;;5001849;28;20636;-78
2021/04/16 00:55:30;;;;;;;11.02;8.75;;;;;;;;;;4998595;28;20537;-78
2021/04/16 00:57:58;;;;;;;13.73;10.48;;;;;;;;;;4995769;28;20195;-78
2021/04/16 01:00:25;;;;;;;11.05;8.95;;;;;;;;;;4996884;28;20194;-78
2021/04/16 01:02:51;;;;;;;14.82;9.85;;;;;;;;;;5005243;28;20199;-78
2021/04/16 01:05:17;;;;;;;10.82;8.35;;;;;;;;;;5004801;28;20231;-78
2021/04/16 01:07:44;;;;;;;13.23;9.60;;;;;;;;;;5006308;28;20186;-78
2021/04/16 01:10:11;;;;;;;15.43;10.00;;;;;;;;;;5004453;28;20708;-78
2021/04/16 01:12:37;;;;;;;14.38;10.88;;;;;;;;;;5003593;28;20250;-78
2021/04/16 01:15:17;;;;;;;12.68;10.40;;;;;;;;;;5000393;28;20219;-78
2021/04/16 01:17:45;;;;;;;11.75;10.32;;;;;;;;;;5004420;28;20183;-78
2021/04/16 01:20:18;;;;;;;10.40;8.93;;;;;;;;;;4992755;28;20243;-78
2021/04/16 01:22:51;;;;;;;14.02;10.10;;;;;;;;;;5004449;28;20202;-79
2021/04/16 01:25:18;;;;;;;10.27;8.98;;;;;;;;;;5004514;28;20262;-78
2021/04/16 01:27:44;;;;;;;11.18;9.38;;;;;;;;;;5004070;28;20245;-79
2021/04/16 01:30:13;;;;;;;12.05;10.02;;;;;;;;;;4990456;28;20231;-78
2021/04/16 01:32:39;;;;;;;11.32;10.13;;;;;;;;;;5004722;28;20207;-78
2021/04/16 01:35:06;;;;;;;11.85;9.60;;;;;;;;;;4993422;28;20183;-78
2021/04/16 01:37:32;;;;;;;13.85;9.13;;;;;;;;;;5005015;28;20187;-78
2021/04/16 01:39:58;;;;;;;12.88;10.88;;;;;;;;;;5004321;28;20194;-78
2021/04/16 01:42:25;;;;;;;12.38;10.10;;;;;;;;;;5004402;28;20214;-78
2021/04/16 01:44:51;;;;;;;14.50;10.77;;;;;;;;;;4996361;28;20255;-78
2021/04/16 01:47:17;;;;;;;12.18;9.10;;;;;;;;;;5004275;28;20175;-78
2021/04/16 01:49:49;;;;;;;12.65;10.30;;;;;;;;;;5004296;28;20210;-78
2021/04/16 01:52:27;;;;;;;10.90;9.60;;;;;;;;;;5003641;28;20187;-78
2021/04/16 01:54:53;;;;;;;12.57;9.70;;;;;;;;;;5004054;28;20194;-78
2021/04/16 01:57:25;;;;;;;16.77;9.43;;;;;;;;;;4999710;28;20207;-78
2021/04/16 01:59:52;;;;;;;13.10;10.75;;;;;;;;;;4993704;28;20221;-78
2021/04/16 02:02:21;;;;;;;13.85;10.68;;;;;;;;;;4995451;28;20317;-78
2021/04/16 02:04:47;;;;;;;11.10;9.40;;;;;;;;;;5004827;28;20179;-78
2021/04/16 02:07:13;;;;;;;13.10;10.70;;;;;;;;;;5003884;28;20214;-78
2021/04/16 02:09:40;;;;;;;14.65;9.75;;;;;;;;;;4999946;28;20214;-78
2021/04/16 02:12:07;;;;;;;16.35;11.40;;;;;;;;;;4993515;28;20179;-78
2021/04/16 02:14:34;;;;;;;12.23;10.57;;;;;;;;;;5003862;28;20187;-78
2021/04/16 02:17:08;;;;;;;11.82;9.57;;;;;;;;;;5004626;28;20179;-78
2021/04/16 02:19:34;;;;;;;13.93;11.10;;;;;;;;;;5003338;28;20210;-78
2021/04/16 02:22:00;;;;;;;13.57;10.88;;;;;;;;;;5003245;28;20225;-79
2021/04/16 02:24:26;;;;;;;13.05;11.20;;;;;;;;;;4999507;28;20214;-78
2021/04/16 02:26:53;;;;;;;12.15;9.75;;;;;;;;;;5004216;28;20179;-78
2021/04/16 02:29:20;;;;;;;12.10;10.30;;;;;;;;;;5003464;28;20282;-79
2021/04/16 02:31:46;;;;;;;13.45;10.55;;;;;;;;;;5004248;28;20201;-78
2021/04/16 02:34:20;;;;;;;14.00;10.05;;;;;;;;;;4999032;28;20523;-79
2021/04/16 02:36:46;;;;;;;11.80;10.35;;;;;;;;;;4998375;28;20187;-78
2021/04/16 02:39:12;;;;;;;13.82;10.50;;;;;;;;;;5002558;28;20180;-78
2021/04/16 02:41:38;;;;;;;14.13;10.35;;;;;;;;;;4993127;28;20187;-78
2021/04/16 02:44:05;;;;;;;15.27;11.13;;;;;;;;;;5004097;28;20203;-78
2021/04/16 02:46:31;;;;;;;12.10;9.50;;;;;;;;;;5002316;28;20171;-82
2021/04/16 02:48:57;;;;;;;12.63;11.02;;;;;;;;;;4999347;28;20187;-82
2021/04/16 02:51:23;;;;;;;14.60;11.57;;;;;;;;;;5002415;28;20187;-82
2021/04/16 02:53:49;;;;;;;12.35;10.77;;;;;;;;;;4999151;28;20274;-82
2021/04/16 02:56:15;;;;;;;11.90;10.00;;;;;;;;;;5000692;28;20190;-82
2021/04/16 02:58:41;;;;;;;12.60;9.98;;;;;;;;;;4990947;28;20604;-82
2021/04/16 03:01:07;;;;;;;15.68;11.75;;;;;;;;;;5000578;28;20195;-82
2021/04/16 03:03:35;;;;;;;16.17;11.02;;;;;;;;;;5003153;28;20221;-82
2021/04/16 03:06:01;;;;;;;12.40;10.02;;;;;;;;;;5002172;28;20179;-82
2021/04/16 03:08:27;;;;;;;12.98;11.15;;;;;;;;;;5002232;28;20245;-82
2021/04/16 03:10:53;;;;;;;13.20;11.27;;;;;;;;;;4990346;28;20209;-82
2021/04/16 03:13:19;;;;;;;12.57;9.85;;;;;;;;;;5001417;28;20193;-82
2021/04/16 03:15:46;;;;;;;15.00;11.30;;;;;;;;;;5000789;28;20193;-82
2021/04/16 03:18:12;;;;;;;12.57;9.88;;;;;;;;;;5003336;28;20376;-82
2021/04/16 03:20:38;;;;;;;13.95;10.80;;;;;;;;;;5001419;28;20187;-82
2021/04/16 03:23:04;;;;;;;15.25;10.50;;;;;;;;;;5003093;28;20562;-81
2021/04/16 03:25:30;;;;;;;12.93;10.48;;;;;;;;;;5003964;28;20202;-82
2021/04/16 03:27:56;;;;;;;11.80;9.70;;;;;;;;;;5003166;28;20198;-82
2021/04/16 03:30:24;;;;;;;14.60;10.60;;;;;;;;;;5002688;28;20250;-82
2021/04/16 03:32:50;;;;;;;11.90;10.55;;;;;;;;;;5002814;28;20215;-81
2021/04/16 03:35:17;;;;;;;14.75;10.52;;;;;;;;;;4992999;28;20191;-82
2021/04/16 03:37:43;;;;;;;13.05;10.55;;;;;;;;;;5006420;28;20187;-82
2021/04/16 03:40:11;;;;;;;16.00;11.43;;;;;;;;;;4998644;28;20191;-82
2021/04/16 03:42:37;;;;;;;13.88;11.40;;;;;;;;;;4996235;28;20213;-81
2021/04/16 03:45:04;;;;;;;15.02;11.88;;;;;;;;;;5001849;28;20643;-82
2021/04/16 03:47:30;;;;;;;16.02;12.05;;;;;;;;;;5005060;28;20245;-82
2021/04/16 03:49:56;;;;;;;12.20;9.75;;;;;;;;;;5007912;28;20266;-82
2021/04/16 03:52:23;;;;;;;14.15;11.57;;;;;;;;;;4997585;28;20550;-82
2021/04/16 03:54:49;;;;;;;15.13;11.10;;;;;;;;;;5001991;28;20653;-82
2021/04/16 03:57:15;;;;;;;14.38;10.60;;;;;;;;;;5006357;28;20210;-81
2021/04/16 03:59:42;;;;;;;13.27;9.93;;;;;;;;;;5006527;28;20191;-82
2021/04/16 04:02:08;;;;;;;16.40;11.25;;;;;;;;;;5006026;28;20259;-82
2021/04/16 04:04:34;;;;;;;14.82;10.50;;;;;;;;;;5007130;28;20179;-82
2021/04/16 04:07:00;;;;;;;11.98;10.45;;;;;;;;;;5005567;28;20195;-82
2021/04/16 04:09:26;;;;;;;13.93;10.48;;;;;;;;;;5006128;28;20175;-82
2021/04/16 04:11:52;;;;;;;14.55;11.55;;;;;;;;;;5004701;28;20250;-82
2021/04/16 04:14:18;;;;;;;15.15;11.27;;;;;;;;;;5005845;28;20225;-81
2021/04/16 04:17:03;;;;;;;15.50;10.60;;;;;;;;;;5006441;28;20175;-82
2021/04/16 04:19:30;;;;;;;12.88;10.77;;;;;;;;;;5006918;28;20183;-82
2021/04/16 04:21:57;;;;;;;14.20;11.77;;;;;;;;;;5005525;28;20191;-82
2021/04/16 04:24:23;;;;;;;13.85;10.52;;;;;;;;;;5001912;28;20179;-81
2021/04/16 04:26:49;;;;;;;17.73;12.50;;;;;;;;;;5005538;28;20187;-82
2021/04/16 04:29:16;;;;;;;15.10;11.88;;;;;;;;;;5013520;28;20770;-81
2021/04/16 04:31:48;;;;;;;15.32;12.52;;;;;;;;;;4996118;28;20190;-81
2021/04/16 04:34:19;;;;;;;17.85;11.60;;;;;;;;;;4999156;28;20172;-82
2021/04/16 04:36:45;;;;;;;17.45;12.18;;;;;;;;;;5000244;28;20195;-82
2021/04/16 04:39:12;;;;;;;17.00;11.55;;;;;;;;;;4999752;28;20180;-82
2021/04/16 04:41:39;;;;;;;12.73;11.32;;;;;;;;;;5004325;28;20262;-81
2021/04/16 04:44:05;;;;;;;15.30;11.55;;;;;;;;;;4994806;28;20251;-82
2021/04/16 04:46:31;;;;;;;14.63;11.57;;;;;;;;;;4999172;28;20184;-81
2021/04/16 04:48:57;;;;;;;17.58;11.45;;;;;;;;;;5000256;28;20187;-81
2021/04/16 04:51:23;;;;;;;14.18;11.70;;;;;;;;;;4999535;28;20234;-82
2021/04/16 04:53:49;;;;;;;17.40;12.95;;;;;;;;;;5003651;28;20249;-82
2021/04/16 04:56:15;;;;;;;16.65;12.18;;;;;;;;;;5000645;28;20187;-81
2021/04/16 04:58:41;;;;;;;16.95;11.10;;;;;;;;;;5005720;28;20179;-81
2021/04/16 05:01:07;;;;;;;14.88;12.65;;;;;;;;;;4995474;28;20184;-81
2021/04/16 05:03:33;;;;;;;14.80;10.77;;;;;;;;;;5004400;28;20578;-81
2021/04/16 05:05:59;;;;;;;14.73;11.43;;;;;;;;;;5005072;28;20187;-82
2021/04/16 05:08:25;;;;;;;16.13;11.95;;;;;;;;;;5005388;28;20198;-82
2021/04/16 05:10:51;;;;;;;18.75;12.23;;;;;;;;;;4997196;28;20176;-81
2021/04/16 05:13:17;;;;;;;16.13;11.85;;;;;;;;;;4995478;28;20656;-82
2021/04/16 05:15:43;;;;;;;17.00;13.57;;;;;;;;;;4999579;28;20191;-81
2021/04/16 05:18:12;;;;;;;15.52;12.05;;;;;;;;;;5004170;28;20198;-81
2021/04/16 05:20:38;;;;;;;15.82;12.25;;;;;;;;;;5004940;28;20214;-81
2021/04/16 05:23:04;;;;;;;15.32;12.60;;;;;;;;;;5004699;28;20211;-81
2021/04/16 05:25:30;;;;;;;19.08;13.00;;;;;;;;;;5003419;28;20180;-81
2021/04/16 05:27:56;;;;;;;15.98;12.35;;;;;;;;;;5004569;28;20214;-81
2021/04/16 05:30:22;;;;;;;15.93;12.30;;;;;;;;;;4999120;28;20233;-81
2021/04/16 05:32:48;;;;;;;13.50;11.20;;;;;;;;;;4993698;28;20275;-81
2021/04/16 05:35:15;;;;;;;16.08;13.35;;;;;;;;;;5004809;28;20190;-79
2021/04/16 05:37:41;;;;;;;17.52;13.80;;;;;;;;;;5002093;28;20204;-80
2021/04/16 05:40:08;;;;;;;15.85;11.52;;;;;;;;;;4995941;28;20427;-79
2021/04/16 05:42:34;;;;;;;16.55;12.65;;;;;;;;;;4993044;28;20202;-80
2021/04/16 05:45:01;;;;;;;23.02;13.38;;;;;;;;;;4998113;28;20187;-79
2021/04/16 05:47:30;;;;;;;17.50;12.40;;;;;;;;;;5012210;28;20175;-79
2021/04/16 05:49:56;;;;;;;16.95;14.07;;;;;;;;;;4993674;28;20185;-79
2021/04/16 05:52:22;;;;;;;17.00;12.98;;;;;;;;;;5002164;28;20195;-79
2021/04/16 05:54:48;;;;;;;19.30;14.40;;;;;;;;;;5004191;28;20193;-78
2021/04/16 05:57:14;;;;;;;18.88;14.43;;;;;;;;;;5002221;28;20183;-78
2021/04/16 05:59:41;;;;;;;20.63;14.75;;;;;;;;;;5002905;28;20214;-79
2021/04/16 06:02:22;;;;;;;16.55;13.30;;;;;;;;;;5003723;28;20575;-79
2021/04/16 06:04:48;;;;;;;18.73;14.20;;;;;;;;;;4993898;28;20186;-79
2021/04/16 06:07:14;;;;;;;18.48;14.30;;;;;;;;;;4994646;28;20250;-79
2021/04/16 06:09:40;;;;;;;18.95;13.95;;;;;;;;;;4998958;28;20262;-79
2021/04/16 06:12:07;;;;;;;19.90;15.68;;;;;;;;;;5005900;28;20187;-78
2021/04/16 06:14:33;;;;;;;20.65;14.60;;;;;;;;;;5001082;28;20274;-79
2021/04/16 06:16:59;;;;;;;18.25;14.50;;;;;;;;;;5002180;28;20175;-78
2021/04/16 06:19:25;;;;;;;19.00;14.05;;;;;;;;;;5004079;28;20167;-79
2021/04/16 06:21:51;;;;;;;20.15;14.48;;;;;;;;;;5003291;28;20193;-79
2021/04/16 06:24:17;;;;;;;17.48;14.20;;;;;;;;;;5003409;28;20641;-80
2021/04/16 06:26:43;;;;;;;21.45;15.45;;;;;;;;;;5003373;28;20185;-78
2021/04/16 06:29:09;;;;;;;17.65;14.50;;;;;;;;;;4997841;28;20227;-79
2021/04/16 06:31:35;;;;;;;18.58;14.52;;;;;;;;;;5001890;28;20179;-78
2021/04/16 06:34:01;;;;;;;19.33;14.15;;;;;;;;;;5001016;28;20255;-79
2021/04/16 06:36:27;;;;;;;16.60;14.75;;;;;;;;;;5001267;28;20222;-80
2021/04/16 06:38:53;;;;;;;17.80;14.48;;;;;;;;;;4992566;28;20254;-80
2021/04/16 06:41:21;;;;;;;18.20;15.48;;;;;;;;;;5003133;28;20249;-79
2021/04/16 06:43:49;;;;;;;18.95;15.00;;;;;;;;;;4998168;28;20214;-78
2021/04/16 06:46:17;;;;;;;22.30;15.77;;;;;;;;;;5002340;28;20210;-78
2021/04/16 06:48:43;;;;;;;18.00;13.88;;;;;;;;;;5001433;28;20214;-79
2021/04/16 06:51:10;;;;;;;25.58;15.30;;;;;;;;;;4999252;28;20199;-80
2021/04/16 06:53:49;;;;;;;20.17;16.25;;;;;;;;;;5000557;28;20183;-79
2021/04/16 06:56:18;;;;;;;20.95;14.48;;;;;;;;;;5001424;28;20183;-79
2021/04/16 06:58:52;;;;;;;16.23;13.40;;;;;;;;;;5002947;28;20183;-80
2021/04/16 07:01:45;;;;;;;17.15;13.93;;;;;;;;;;4998116;28;20207;-80
2021/04/16 07:04:13;;;;;;;17.45;14.27;;;;;;;;;;5009470;28;20358;-81
2021/04/16 07:06:40;;;;;;;19.08;13.75;;;;;;;;;;5015391;28;20312;-82
2021/04/16 07:09:07;;;;;;;21.13;15.63;;;;;;;;;;5022188;28;20813;-82
2021/04/16 07:11:45;;;;;;;20.67;15.30;;;;;;;;;;5004072;28;20897;-81
2021/04/16 07:14:20;;;;;;;18.98;13.43;;;;;;;;;;5004477;28;20181;-81
2021/04/16 07:16:49;;;;;;;19.15;14.07;;;;;;;;;;5018679;28;20182;-83
2021/04/16 07:19:17;;;;;;;18.60;13.75;;;;;;;;;;5021964;28;20241;-82
2021/04/16 07:21:43;;;;;;;18.73;15.65;;;;;;;;;;5022520;28;20280;-82
2021/04/16 07:24:12;;;;;;;17.65;14.57;;;;;;;;;;5022430;28;20214;-83
2021/04/16 07:26:40;;;;;;;19.55;15.80;;;;;;;;;;5007037;28;20182;-82
2021/04/16 07:29:08;;;;;;;16.55;13.15;;;;;;;;;;5021952;28;20218;-83
2021/04/16 07:31:37;;;;;;;18.30;15.10;;;;;;;;;;5022030;28;20241;-84
2021/04/16 07:34:04;;;;;;;23.77;15.77;;;;;;;;;;5006621;28;20562;-81
2021/04/16 07:36:30;;;;;;;20.13;15.35;;;;;;;;;;5022245;28;20198;-82
2021/04/16 07:39:05;;;;;;;17.73;13.10;;;;;;;;;;5024669;28;20208;-82
2021/04/16 07:41:33;;;;;;;14.95;12.75;;;;;;;;;;5009396;28;20263;-83
2021/04/16 07:44:00;;;;;;;17.95;14.40;;;;;;;;;;5001145;28;20206;-82
2021/04/16 07:46:26;;;;;;;19.35;15.60;;;;;;;;;;5003431;28;20183;-81
2021/04/16 07:48:53;;;;;;;15.77;13.10;;;;;;;;;;5010839;28;20187;-82
2021/04/16 07:51:31;;;;;;;16.42;14.35;;;;;;;;;;5002775;28;20442;-83
2021/04/16 07:54:17;;;;;;;18.13;14.25;;;;;;;;;;5014074;28;20195;-83
2021/04/16 07:56:44;;;;;;;15.77;13.30;;;;;;;;;;4998913;28;20254;-82
2021/04/16 07:59:13;;;;;;;15.27;12.95;;;;;;;;;;4997259;28;20649;-78
2021/04/16 08:01:40;;;;;;;14.88;13.27;;;;;;;;;;4991287;28;20184;-79
2021/04/16 08:04:22;;;;;;;21.17;14.32;;;;;;;;;;5002319;28;20207;-80
2021/04/16 08:06:52;;;;;;;18.33;14.15;;;;;;;;;;5020548;28;20195;-80
2021/04/16 08:09:21;;;;;;;19.17;12.80;;;;;;;;;;5009775;28;20249;-79
2021/04/16 08:11:47;;;;;;;14.32;12.90;;;;;;;;;;5014175;28;20191;-79
2021/04/16 08:14:22;;;;;;;18.35;15.07;;;;;;;;;;5000642;28;20560;-79
2021/04/16 08:17:01;;;;;;;27.35;15.68;;;;;;;;;;4991833;28;20270;-79
2021/04/16 08:19:29;;;;;;;16.40;12.90;;;;;;;;;;5019253;28;20183;-78
2021/04/16 08:21:58;;;;;;;15.95;12.40;;;;;;;;;;5000042;28;20187;-80
2021/04/16 08:24:28;;;;;;;13.48;12.02;;;;;;;;;;5003881;28;20221;-80
2021/04/16 08:27:02;;;;;;;17.80;12.95;;;;;;;;;;5002093;28;20184;-79
2021/04/16 08:29:33;;;;;;;14.52;12.35;;;;;;;;;;5000705;28;20275;-79
2021/04/16 08:32:11;;;;;;;14.70;12.40;;;;;;;;;;5016840;28;20175;-79
2021/04/16 08:34:46;;;;;;;16.27;13.10;;;;;;;;;;5004997;28;20231;-80
2021/04/16 08:37:16;;;;;;;15.27;12.82;;;;;;;;;;5001060;28;20191;-80
2021/04/16 08:39:44;;;;;;;14.02;12.25;;;;;;;;;;4995528;28;20186;-79
2021/04/16 08:42:21;;;;;;;12.27;10.65;;;;;;;;;;5003627;28;20183;-79
2021/04/16 08:44:50;;;;;;;18.83;12.10;;;;;;;;;;5004688;28;20624;-80
2021/04/16 08:47:30;;;;;;;13.40;11.18;;;;;;;;;;5005007;28;20176;-79
2021/04/16 08:49:56;;;;;;;21.30;12.00;;;;;;;;;;5004876;28;20179;-79
2021/04/16 08:52:41;;;;;;;15.82;11.82;;;;;;;;;;5003446;28;20226;-78
2021/04/16 08:55:30;;;;;;;15.48;9.98;;;;;;;;;;5003264;28;20190;-80
2021/04/16 08:58:07;;;;;;;12.98;11.05;;;;;;;;;;5013804;28;20206;-79
2021/04/16 09:00:33;;;;;;;14.48;10.82;;;;;;;;;;5002169;28;20201;-82
2021/04/16 09:03:00;;;;;;;13.10;10.90;;;;;;;;;;5019151;28;20203;-79
2021/04/16 09:05:27;;;;;;;10.73;9.63;;;;;;;;;;5003323;28;20611;-78
2021/04/16 09:07:59;;;;;;;12.05;9.68;;;;;;;;;;5019482;28;20175;-84
2021/04/16 09:10:24;;;;;;;12.40;9.65;;;;;;;;;;5003845;28;20353;-81
2021/04/16 09:12:55;;;;;;;10.98;9.18;;;;;;;;;;5002180;28;20223;-81
2021/04/16 09:15:20;;;;;;;9.38;8.10;;;;;;;;;;4999279;28;20179;-82
2021/04/16 09:17:52;;;;;;;12.20;9.30;;;;;;;;;;5003009;28;20578;-82
2021/04/16 09:20:23;;;;;;;10.07;9.07;;;;;;;;;;5004220;28;20446;-80
2021/04/16 09:22:50;;;;;;;10.52;9.00;;;;;;;;;;5003897;28;20368;-83
2021/04/16 09:25:45;;;;;;;13.68;12.30;;;;;;;;;;5006835;28;20183;-79
2021/04/16 09:28:23;;;;;;;11.27;8.95;;;;;;;;;;5002873;28;20227;-83
2021/04/16 09:30:54;;;;;;;8.70;7.70;;;;;;;;;;4998759;28;20272;-81
2021/04/16 09:33:21;;;;;;;12.20;8.00;;;;;;;;;;4995013;28;20197;-81
2021/04/16 09:36:07;;;;;;;10.02;7.55;;;;;;;;;;5017594;28;20183;-82
2021/04/16 09:38:39;;;;;;;8.52;7.72;;;;;;;;;;4999480;28;20195;-79
2021/04/16 09:41:16;;;;;;;10.25;8.15;;;;;;;;;;4996371;28;20190;-80
2021/04/16 09:43:42;;;;;;;7.22;6.50;;;;;;;;;;5019539;28;20206;-84
2021/04/16 09:46:27;;;;;;;9.25;5.35;;;;;;;;;;5018214;28;20183;-80
2021/04/16 09:48:55;;;;;;;5.20;4.70;;;;;;;;;;5014807;28;20265;-82
2021/04/16 09:51:38;;;;;;;5.72;4.93;;;;;;;;;;5001476;28;20183;-81
2021/04/16 09:54:30;;;;;;;5.40;4.88;;;;;;;;;;5003724;28;20205;-81
2021/04/16 09:57:02;;;;;;;6.63;5.07;;;;;;;;;;5003027;28;20195;-85
2021/04/16 09:59:31;;;;;;;5.90;5.20;;;;;;;;;;5008169;28;20187;-84
2021/04/16 10:02:22;;;;;;;6.13;5.35;;;;;;;;;;5017828;28;20649;-83
2021/04/16 10:05:07;;;;;;;6.10;5.50;;;;;;;;;;5003483;28;20208;-84
2021/04/16 10:07:41;;;;;;;6.05;5.18;;;;;;;;;;5001229;28;20214;-81
2021/04/16 10:10:12;;;;;;;7.07;6.38;;;;;;;;;;5017964;28;20185;-81
2021/04/16 10:12:40;;;;;;;6.57;5.55;;;;;;;;;;5002738;28;20187;-82
2021/04/16 10:15:23;;;;;;;6.68;5.25;;;;;;;;;;5000442;28;20186;-83
2021/04/16 10:18:12;;;;;;;8.15;5.03;;;;;;;;;;4993202;28;20245;-80
2021/04/16 10:20:41;;;;;;;5.63;5.05;;;;;;;;;;4989396;28;20191;-83
2021/04/16 10:23:19;;;;;;;9.10;5.90;;;;;;;;;;5003449;28;20210;-80
2021/04/16 12:38:13;;;;;;;7.40;6.70;;;;;;;;;;5001434;28;20214;-82
2021/04/16 12:40:39;;;;;;;7.95;6.18;;;;;;;;;;5006354;28;20218;-83
2021/04/16 12:43:08;;;;;;;6.68;6.05;;;;;;;;;;5003047;28;20207;-82
2021/04/16 12:45:40;;;;;;;5.80;5.30;;;;;;;;;;4995817;28;20204;-87
2021/04/16 12:48:06;;;;;;;7.63;6.93;;;;;;;;;;5004164;28;20209;-81
2021/04/16 12:50:35;;;;;;;6.85;6.13;;;;;;;;;;5002023;28;20214;-80
2021/04/16 12:53:01;;;;;;;7.20;6.53;;;;;;;;;;5002310;28;20641;-83
2021/04/16 12:55:28;;;;;;;8.45;7.65;;;;;;;;;;5019694;28;20274;-84
2021/04/16 12:57:55;;;;;;;7.18;6.25;;;;;;;;;;5001354;28;20188;-83
2021/04/16 13:00:30;;;;;;;8.10;7.38;;;;;;;;;;5002993;28;20191;-86
2021/04/16 13:02:59;;;;;;;8.23;7.43;;;;;;;;;;5003573;28;20209;-86
2021/04/16 13:05:26;;;;;;;7.40;6.70;;;;;;;;;;5003163;28;20211;-86
2021/04/16 13:07:52;;;;;;;7.57;6.88;;;;;;;;;;5003229;28;20198;-81
2021/04/16 13:10:18;;;;;;;6.40;5.80;;;;;;;;;;5002726;28;20238;-83
2021/04/16 13:12:45;;;;;;;7.10;6.50;;;;;;;;;;5003846;28;20226;-84
2021/04/16 13:15:12;;;;;;;8.75;6.97;;;;;;;;;;5003357;28;20278;-85
2021/04/16 13:17:40;;;;;;;6.70;6.10;;;;;;;;;;5003256;28;20187;-83
2021/04/16 13:20:06;;;;;;;5.80;5.13;;;;;;;;;;5004214;28;20175;-81
2021/04/16 13:22:32;;;;;;;6.28;5.68;;;;;;;;;;5004125;28;20203;-86
2021/04/16 13:24:58;;;;;;;6.53;5.97;;;;;;;;;;4990482;28;20237;-84
2021/04/16 13:27:26;;;;;;;7.00;6.30;;;;;;;;;;5019097;28;20438;-85
2021/04/16 13:29:52;;;;;;;7.78;6.43;;;;;;;;;;5003599;28;20215;-81
2021/04/16 13:32:20;;;;;;;8.48;6.50;;;;;;;;;;5001922;28;20866;-81
2021/04/16 13:34:46;;;;;;;8.65;7.35;;;;;;;;;;5018715;28;20223;-81
2021/04/16 13:37:18;;;;;;;6.45;5.85;;;;;;;;;;5002747;28;20210;-82
2021/04/16 13:39:48;;;;;;;6.93;6.30;;;;;;;;;;4997977;28;20226;-82
2021/04/16 13:42:14;;;;;;;7.70;7.10;;;;;;;;;;5001627;28;20193;-82
2021/04/16 13:44:40;;;;;;;7.00;6.38;;;;;;;;;;5002909;28;20532;-81
2021/04/16 13:47:09;;;;;;;7.50;5.57;;;;;;;;;;5001611;28;20202;-82
2021/04/16 13:49:37;;;;;;;7.03;6.03;;;;;;;;;;5002838;28;20177;-82
2021/04/16 13:52:08;;;;;;;6.63;6.03;;;;;;;;;;5000356;28;20194;-86
2021/04/16 13:54:35;;;;;;;6.50;5.80;;;;;;;;;;5007986;28;20198;-83
2021/04/16 13:57:03;;;;;;;5.97;5.47;;;;;;;;;;5000537;28;20195;-87
2021/04/16 13:59:31;;;;;;;6.78;5.43;;;;;;;;;;4999245;28;20187;-85
2021/04/16 14:01:57;;;;;;;4.68;4.28;;;;;;;;;;5000337;28;20171;-86
2021/04/16 14:04:25;;;;;;;7.68;5.60;;;;;;;;;;5000024;28;20249;-83
2021/04/16 14:06:56;;;;;;;8.65;5.60;;;;;;;;;;5002278;28;20675;-81
2021/04/16 14:09:23;;;;;;;6.25;5.50;;;;;;;;;;5000385;28;20544;-84
2021/04/16 14:11:50;;;;;;;6.40;5.90;;;;;;;;;;5001859;28;20190;-87
2021/04/16 14:14:25;;;;;;;6.03;5.43;;;;;;;;;;5001729;28;20210;-85
2021/04/16 14:16:52;;;;;;;5.50;5.00;;;;;;;;;;5018667;28;20179;-84
2021/04/16 14:19:20;;;;;;;5.47;4.80;;;;;;;;;;5002554;28;20214;-84
2021/04/16 14:21:47;;;;;;;7.60;5.03;;;;;;;;;;5001110;28;20205;-88
2021/04/16 14:24:14;;;;;;;7.65;5.28;;;;;;;;;;5000413;28;20207;-87
2021/04/16 14:26:41;;;;;;;5.45;4.95;;;;;;;;;;5002696;28;20190;-81
2021/04/16 14:29:08;;;;;;;6.28;5.68;;;;;;;;;;5003309;28;20225;-82
2021/04/16 14:31:36;;;;;;;5.30;4.80;;;;;;;;;;5018311;28;20171;-85
2021/04/16 14:34:02;;;;;;;6.25;5.72;;;;;;;;;;5001392;28;20195;-82
2021/04/16 14:36:31;;;;;;;6.22;5.63;;;;;;;;;;4998549;28;20187;-83
2021/04/16 14:38:57;;;;;;;5.97;5.53;;;;;;;;;;5002769;28;20582;-82
2021/04/16 14:41:26;;;;;;;6.55;5.85;;;;;;;;;;5015971;28;20187;-84
2021/04/16 14:43:52;;;;;;;5.90;5.40;;;;;;;;;;5018217;28;20225;-82
2021/04/16 14:46:21;;;;;;;6.32;5.72;;;;;;;;;;5001296;28;20219;-86
2021/04/16 14:48:47;;;;;;;6.90;6.30;;;;;;;;;;4999349;28;20187;-85
2021/04/16 14:51:13;;;;;;;7.28;5.65;;;;;;;;;;5000713;28;20213;-89
2021/04/16 14:53:47;;;;;;;6.20;5.60;;;;;;;;;;5001356;28;20250;-84
2021/04/16 14:56:14;;;;;;;6.30;5.72;;;;;;;;;;5000802;28;20194;-81
2021/04/16 14:58:45;;;;;;;6.72;6.15;;;;;;;;;;5013898;28;20195;-88
2021/04/16 15:01:18;;;;;;;6.22;5.72;;;;;;;;;;4998314;28;20194;-88
2021/04/16 15:03:44;;;;;;;10.20;6.05;;;;;;;;;;4996244;28;20258;-83
2021/04/16 15:06:40;;;;;;;;;;;;;;;;;;;;;
2021/04/16 15:09:23;;;;;;;5.63;5.20;;;;;;;;;;5002369;28;20243;-84
2021/04/16 15:11:59;;;;;;;6.10;5.55;;;;;;;;;;5000357;28;20179;-84
2021/04/16 15:14:30;;;;;;;6.15;5.65;;;;;;;;;;5001443;28;20198;-81
2021/04/16 15:16:56;;;;;;;7.78;6.55;;;;;;;;;;5002977;28;20179;-82
2021/04/16 15:19:28;;;;;;;7.90;7.15;;;;;;;;;;4998210;28;20192;-84
2021/04/16 15:21:58;;;;;;;6.18;5.25;;;;;;;;;;5000379;28;20201;-85
2021/04/16 15:24:24;;;;;;;7.90;5.90;;;;;;;;;;5000140;28;20325;-88
2021/04/16 15:26:50;;;;;;;5.40;5.00;;;;;;;;;;5002095;28;20180;-82
2021/04/16 15:29:43;;;;;;;5.57;5.07;;;;;;;;;;5001807;28;20557;-83
2021/04/16 15:32:13;;;;;;;5.65;5.15;;;;;;;;;;5003740;28;20202;-84
2021/04/16 15:46:08;;;;;;;5.00;4.40;;;;;;;;;;5004398;28;20255;-83
2021/04/16 15:48:41;;;;;;;5.40;4.90;;;;;;;;;;4995749;28;20561;-87
2021/04/16 15:51:09;;;;;;;5.80;5.30;;;;;;;;;;5003869;28;20175;-86
2021/04/16 15:53:35;;;;;;;4.93;4.53;;;;;;;;;;5006073;28;20199;-86
2021/04/16 15:56:01;;;;;;;5.00;4.55;;;;;;;;;;5007807;28;20191;-79
2021/04/16 15:58:29;;;;;;;6.10;4.90;;;;;;;;;;5001475;28;20768;-84
2021/04/16 16:00:56;;;;;;;5.47;4.45;;;;;;;;;;5005027;28;20190;-84
2021/04/16 16:03:23;;;;;;;5.55;4.75;;;;;;;;;;5013441;28;20203;-82
2021/04/16 16:05:49;;;;;;;5.25;4.63;;;;;;;;;;5006385;28;20207;-85
2021/04/16 16:08:18;;;;;;;5.15;4.65;;;;;;;;;;5005092;28;20206;-86
2021/04/16 16:10:48;;;;;;;4.80;4.40;;;;;;;;;;5020049;28;20187;-81
2021/04/16 16:13:20;;;;;;;6.22;4.65;;;;;;;;;;5004092;28;20607;-79
2021/04/16 16:15:46;;;;;;;5.03;4.63;;;;;;;;;;4996320;28;20234;-89
2021/04/16 16:18:16;;;;;;;4.50;4.10;;;;;;;;;;4977522;28;20241;-79
2021/04/16 16:20:43;;;;;;;5.07;4.57;;;;;;;;;;5024873;28;20213;-79
2021/04/16 16:23:10;;;;;;;6.32;5.72;;;;;;;;;;5023901;28;20236;-81
2021/04/16 16:25:37;;;;;;;4.90;4.40;;;;;;;;;;5025304;28;20175;-78
2021/04/16 16:28:06;;;;;;;7.60;6.82;;;;;;;;;;5020493;28;20282;-79
2021/04/16 16:30:33;;;;;;;8.18;6.30;;;;;;;;;;5031778;28;20704;-80
2021/04/16 16:33:00;;;;;;;6.50;5.90;;;;;;;;;;5024836;28;20196;-85
2021/04/16 16:35:28;;;;;;;5.88;5.15;;;;;;;;;;5024731;28;20217;-87
2021/04/16 16:37:53;;;;;;;6.85;5.25;;;;;;;;;;5020104;28;20182;-85
2021/04/16 16:40:21;;;;;;;5.90;5.32;;;;;;;;;;5023760;28;20186;-84
2021/04/16 16:42:48;;;;;;;7.35;5.60;;;;;;;;;;5025621;28;20206;-86
2021/04/16 16:45:16;;;;;;;5.90;5.22;;;;;;;;;;5024755;28;20186;-86
2021/04/16 16:47:43;;;;;;;7.22;4.93;;;;;;;;;;5023476;28;20225;-87
2021/04/16 16:50:10;;;;;;;5.65;4.05;;;;;;;;;;5024721;28;20254;-86
2021/04/16 16:52:36;;;;;;;4.38;3.50;;;;;;;;;;5016372;28;20536;-87
2021/04/16 16:55:03;;;;;;;6.90;5.00;;;;;;;;;;5029190;28;20186;-87
2021/04/16 16:57:29;;;;;;;5.07;3.90;;;;;;;;;;5022797;28;20191;-82
2021/04/16 16:59:55;;;;;;;5.22;4.25;;;;;;;;;;5023578;28;20181;-85
2021/04/16 17:02:24;;;;;;;5.15;4.75;;;;;;;;;;5022437;28;20190;-87